Time;durP1;ratioP1;P1;durP2;ratioP2;P2;SDS_P1;SDS_P2;PMS_P1;PMS_P2;Temp;Humidity;BMP_temperature;BMP_pressure;BME280_temperature;BME280_humidity;BME280_pressure;Samples;Min_cycle;Max_cycle;Signal;HPM_P1;HPM_P2
2023/04/17 00:01:46;;;;;;;34.22;22.85;;;;;;;;;;5054603;28;20013;-66
2023/04/17 00:04:12;;;;;;;33.10;21.27;;;;;;;;;;5054146;28;20022;-66
2023/04/17 00:06:42;;;;;;;31.75;22.20;;;;;;;;;;5054686;28;20366;-65
2023/04/17 00:09:08;;;;;;;31.75;21.25;;;;;;;;;;5045318;28;20021;-66
2023/04/17 00:11:34;;;;;;;33.05;21.83;;;;;;;;;;5054338;28;20025;-65
2023/04/17 00:14:00;;;;;;;31.48;22.52;;;;;;;;;;5054949;28;20032;-65
2023/04/17 00:16:26;;;;;;;30.95;20.65;;;;;;;;;;5054723;28;20025;-66
2023/04/17 00:18:52;;;;;;;32.70;20.67;;;;;;;;;;5054629;28;20025;-66
2023/04/17 00:21:18;;;;;;;32.90;22.60;;;;;;;;;;5054355;28;20036;-67
2023/04/17 00:23:44;;;;;;;31.48;21.42;;;;;;;;;;5053395;28;20474;-67
2023/04/17 00:26:11;;;;;;;32.40;23.38;;;;;;;;;;5053079;28;20028;-66
2023/04/17 00:28:37;;;;;;;33.25;22.75;;;;;;;;;;5053664;28;20033;-65
2023/04/17 00:31:03;;;;;;;31.98;22.73;;;;;;;;;;5053072;28;20551;-66
2023/04/17 00:33:29;;;;;;;30.60;21.50;;;;;;;;;;5052071;28;20032;-69
2023/04/17 00:35:55;;;;;;;29.23;21.05;;;;;;;;;;5054424;28;20032;-66
2023/04/17 00:38:21;;;;;;;33.17;21.95;;;;;;;;;;5054264;28;20542;-66
2023/04/17 00:40:47;;;;;;;31.13;22.48;;;;;;;;;;5054824;28;20109;-66
2023/04/17 00:43:14;;;;;;;30.25;21.60;;;;;;;;;;5053773;28;20389;-68
2023/04/17 00:45:41;;;;;;;30.92;21.40;;;;;;;;;;5052762;28;20017;-66
2023/04/17 00:48:07;;;;;;;32.33;21.67;;;;;;;;;;5054258;28;20033;-67
2023/04/17 00:50:34;;;;;;;35.50;22.90;;;;;;;;;;5054180;28;20025;-66
2023/04/17 00:53:00;;;;;;;33.45;23.08;;;;;;;;;;5053879;28;20531;-66
2023/04/17 00:55:27;;;;;;;31.35;22.70;;;;;;;;;;5052288;28;20029;-67
2023/04/17 00:57:54;;;;;;;33.38;23.40;;;;;;;;;;5052601;28;20025;-66
2023/04/17 01:00:20;;;;;;;31.85;22.63;;;;;;;;;;5053663;28;20025;-66
2023/04/17 01:02:46;;;;;;;32.28;22.98;;;;;;;;;;5038948;28;20033;-66
2023/04/17 01:05:12;;;;;;;32.08;21.80;;;;;;;;;;5053178;28;20017;-67
2023/04/17 01:07:40;;;;;;;32.58;23.35;;;;;;;;;;5053745;28;20382;-67
2023/04/17 01:10:06;;;;;;;35.47;23.77;;;;;;;;;;5036012;28;20094;-67
2023/04/17 01:12:32;;;;;;;33.08;21.92;;;;;;;;;;5053576;28;20040;-66
2023/04/17 01:14:58;;;;;;;34.60;24.20;;;;;;;;;;5034976;28;20025;-67
2023/04/17 01:17:27;;;;;;;34.10;24.23;;;;;;;;;;5053729;28;20086;-67
2023/04/17 01:19:54;;;;;;;34.58;23.52;;;;;;;;;;5053372;28;20100;-68
2023/04/17 01:22:20;;;;;;;33.85;23.13;;;;;;;;;;5053512;28;20391;-66
2023/04/17 01:24:46;;;;;;;34.50;24.23;;;;;;;;;;5052764;28;20023;-66
2023/04/17 01:27:14;;;;;;;33.20;23.40;;;;;;;;;;5053470;28;20082;-66
2023/04/17 01:29:40;;;;;;;35.53;23.17;;;;;;;;;;5035620;28;20124;-65
2023/04/17 01:32:07;;;;;;;34.72;25.02;;;;;;;;;;5053338;28;20433;-65
2023/04/17 01:34:33;;;;;;;34.70;23.75;;;;;;;;;;5052053;28;20095;-66
2023/04/17 01:36:59;;;;;;;34.72;24.45;;;;;;;;;;5052800;28;20047;-65
2023/04/17 01:39:26;;;;;;;35.67;25.13;;;;;;;;;;5034989;28;20029;-66
2023/04/17 01:41:53;;;;;;;34.92;25.02;;;;;;;;;;5034956;28;20370;-65
2023/04/17 01:44:19;;;;;;;40.38;26.95;;;;;;;;;;5034076;28;20036;-65
2023/04/17 01:46:45;;;;;;;38.20;26.15;;;;;;;;;;5052597;28;20096;-65
2023/04/17 01:49:11;;;;;;;37.67;25.65;;;;;;;;;;5052594;28;20025;-65
2023/04/17 01:51:37;;;;;;;36.35;25.73;;;;;;;;;;5035008;28;20036;-65
2023/04/17 01:54:03;;;;;;;36.70;25.38;;;;;;;;;;5051834;28;20032;-65
2023/04/17 01:56:29;;;;;;;35.40;25.17;;;;;;;;;;5052915;28;20443;-65
2023/04/17 01:58:55;;;;;;;34.25;24.70;;;;;;;;;;5034657;28;20470;-67
2023/04/17 02:01:21;;;;;;;36.83;26.98;;;;;;;;;;5052541;28;20031;-67
2023/04/17 02:03:47;;;;;;;36.55;25.17;;;;;;;;;;5051736;28;20021;-66
2023/04/17 02:06:14;;;;;;;39.08;26.42;;;;;;;;;;5052428;28;20432;-67
2023/04/17 02:08:40;;;;;;;36.78;25.90;;;;;;;;;;5053039;28;20055;-66
2023/04/17 02:11:06;;;;;;;36.42;27.02;;;;;;;;;;5052255;28;20541;-67
2023/04/17 02:13:32;;;;;;;35.35;24.85;;;;;;;;;;5033292;28;20029;-67
2023/04/17 02:15:58;;;;;;;36.88;25.38;;;;;;;;;;5034445;28;20116;-67
2023/04/17 02:18:25;;;;;;;34.60;24.90;;;;;;;;;;5034196;28;20021;-67
2023/04/17 02:20:51;;;;;;;37.35;26.83;;;;;;;;;;5034292;28;20385;-66
2023/04/17 02:23:17;;;;;;;34.83;24.73;;;;;;;;;;5033589;28;20032;-67
2023/04/17 02:25:43;;;;;;;36.33;23.92;;;;;;;;;;5052043;28;20025;-67
2023/04/17 02:28:09;;;;;;;35.78;25.73;;;;;;;;;;5034119;28;20025;-66
2023/04/17 02:30:35;;;;;;;34.38;25.05;;;;;;;;;;5051963;28;20032;-67
2023/04/17 02:33:01;;;;;;;41.30;25.92;;;;;;;;;;5035964;28;20029;-68
2023/04/17 02:35:28;;;;;;;33.80;23.98;;;;;;;;;;5036503;28;20029;-67
2023/04/17 02:37:54;;;;;;;34.53;24.17;;;;;;;;;;5033996;28;20486;-67
2023/04/17 02:40:20;;;;;;;37.63;24.95;;;;;;;;;;5052429;28;20094;-67
2023/04/17 02:42:46;;;;;;;33.75;23.60;;;;;;;;;;5052500;28;20417;-66
2023/04/17 02:45:12;;;;;;;31.88;23.00;;;;;;;;;;5051425;28;20492;-67
2023/04/17 02:47:38;;;;;;;36.40;25.65;;;;;;;;;;5051706;28;20112;-66
2023/04/17 02:50:04;;;;;;;39.65;25.08;;;;;;;;;;5051738;28;20060;-66
2023/04/17 02:52:31;;;;;;;35.63;23.45;;;;;;;;;;5051666;28;20422;-67
2023/04/17 02:54:57;;;;;;;37.45;23.98;;;;;;;;;;5050900;28;20053;-67
2023/04/17 02:57:23;;;;;;;32.97;23.92;;;;;;;;;;5051512;28;20021;-66
2023/04/17 02:59:50;;;;;;;34.33;23.55;;;;;;;;;;5033850;28;20021;-67
2023/04/17 03:02:20;;;;;;;34.47;23.42;;;;;;;;;;5033736;28;20082;-66
2023/04/17 03:04:48;;;;;;;33.38;23.45;;;;;;;;;;5050924;28;20017;-67
2023/04/17 03:07:16;;;;;;;32.47;22.85;;;;;;;;;;5051652;28;20166;-66
2023/04/17 03:09:44;;;;;;;35.42;23.98;;;;;;;;;;5051908;28;20021;-67
2023/04/17 03:12:10;;;;;;;35.00;24.65;;;;;;;;;;5034183;28;20385;-66
2023/04/17 03:14:36;;;;;;;34.00;24.77;;;;;;;;;;5032905;28;20059;-66
2023/04/17 03:17:02;;;;;;;37.13;24.95;;;;;;;;;;5033498;28;20110;-66
2023/04/17 03:19:28;;;;;;;34.28;23.88;;;;;;;;;;5051560;28;20099;-67
2023/04/17 03:21:54;;;;;;;34.45;24.40;;;;;;;;;;5051743;28;20048;-67
2023/04/17 03:24:20;;;;;;;36.63;26.42;;;;;;;;;;5050722;28;20057;-66
2023/04/17 03:26:46;;;;;;;35.20;24.73;;;;;;;;;;5053653;28;20032;-67
2023/04/17 03:29:12;;;;;;;32.83;23.42;;;;;;;;;;5037598;28;20029;-66
2023/04/17 03:31:38;;;;;;;36.15;25.58;;;;;;;;;;5055331;28;20021;-66
2023/04/17 03:34:04;;;;;;;34.22;22.80;;;;;;;;;;5054319;28;20449;-67
2023/04/17 03:36:31;;;;;;;36.75;23.10;;;;;;;;;;5055259;28;20029;-67
2023/04/17 03:38:57;;;;;;;35.55;24.40;;;;;;;;;;5055418;28;20136;-66
2023/04/17 03:41:23;;;;;;;36.70;24.98;;;;;;;;;;5055251;28;20033;-67
2023/04/17 03:43:49;;;;;;;35.70;25.38;;;;;;;;;;5036559;28;20029;-67
2023/04/17 03:46:16;;;;;;;34.58;24.23;;;;;;;;;;5037758;28;20036;-66
2023/04/17 03:48:42;;;;;;;31.95;23.67;;;;;;;;;;5037280;28;20025;-67
2023/04/17 03:51:08;;;;;;;33.33;23.63;;;;;;;;;;5037201;28;20049;-66
2023/04/17 03:53:34;;;;;;;33.90;24.85;;;;;;;;;;5054227;28;20096;-66
2023/04/17 03:56:00;;;;;;;34.92;25.60;;;;;;;;;;5036849;28;20025;-67
2023/04/17 03:58:26;;;;;;;37.17;24.73;;;;;;;;;;5037201;28;20028;-66
2023/04/17 04:00:54;;;;;;;34.28;25.50;;;;;;;;;;5054735;28;20388;-67
2023/04/17 04:03:20;;;;;;;36.63;25.10;;;;;;;;;;5036113;28;20029;-67
2023/04/17 04:05:46;;;;;;;36.20;25.70;;;;;;;;;;5054191;28;20063;-66
2023/04/17 04:08:12;;;;;;;36.42;25.52;;;;;;;;;;5055034;28;20384;-66
2023/04/17 04:10:39;;;;;;;37.10;26.52;;;;;;;;;;5054705;28;20055;-65
2023/04/17 04:13:04;;;;;;;36.63;26.77;;;;;;;;;;5053858;28;20053;-67
2023/04/17 04:15:30;;;;;;;43.00;25.92;;;;;;;;;;5036360;28;20434;-67
2023/04/17 04:17:56;;;;;;;36.35;27.70;;;;;;;;;;5054070;28;20032;-67
2023/04/17 04:20:22;;;;;;;36.83;26.08;;;;;;;;;;5054416;28;20086;-68
2023/04/17 04:22:49;;;;;;;37.13;27.27;;;;;;;;;;5036229;28;20465;-66
2023/04/17 04:25:16;;;;;;;40.47;27.90;;;;;;;;;;5053534;28;20436;-67
2023/04/17 04:27:48;;;;;;;37.38;28.35;;;;;;;;;;5036295;28;20033;-65
2023/04/17 04:30:15;;;;;;;42.28;28.85;;;;;;;;;;5054403;28;20389;-67
2023/04/17 04:32:41;;;;;;;40.90;27.73;;;;;;;;;;5053998;28;20397;-65
2023/04/17 04:35:08;;;;;;;40.72;30.10;;;;;;;;;;5053386;28;20412;-67
2023/04/17 04:37:34;;;;;;;40.22;29.30;;;;;;;;;;5053969;28;20033;-67
2023/04/17 04:40:01;;;;;;;38.92;28.65;;;;;;;;;;5053887;28;20021;-66
2023/04/17 04:42:30;;;;;;;41.45;30.90;;;;;;;;;;5053854;28;20045;-66
2023/04/17 04:44:56;;;;;;;40.20;29.77;;;;;;;;;;5035179;28;20089;-66
2023/04/17 04:47:22;;;;;;;40.92;30.08;;;;;;;;;;5035993;28;20067;-67
2023/04/17 04:49:48;;;;;;;40.28;32.25;;;;;;;;;;5054481;28;20047;-66
2023/04/17 04:52:14;;;;;;;45.80;32.47;;;;;;;;;;5035895;28;20032;-68
2023/04/17 04:54:40;;;;;;;42.75;31.95;;;;;;;;;;5052660;28;20031;-66
2023/04/17 04:57:06;;;;;;;44.25;32.30;;;;;;;;;;5053459;28;20103;-66
2023/04/17 04:59:32;;;;;;;44.38;32.25;;;;;;;;;;5053584;28;20024;-66
2023/04/17 05:01:58;;;;;;;44.65;31.05;;;;;;;;;;5053283;28;20031;-66
2023/04/17 05:04:25;;;;;;;45.63;32.08;;;;;;;;;;5052699;28;20031;-65
2023/04/17 05:06:51;;;;;;;46.42;32.58;;;;;;;;;;5053296;28;20033;-64
2023/04/17 05:09:17;;;;;;;47.55;32.55;;;;;;;;;;5035735;28;20025;-65
2023/04/17 05:11:43;;;;;;;49.38;33.83;;;;;;;;;;5035140;28;20067;-65
2023/04/17 05:14:09;;;;;;;43.00;31.20;;;;;;;;;;5052658;28;20426;-65
2023/04/17 05:16:35;;;;;;;45.45;32.88;;;;;;;;;;5053690;28;20096;-67
2023/04/17 05:19:01;;;;;;;44.38;33.17;;;;;;;;;;5035716;28;20469;-67
2023/04/17 05:21:27;;;;;;;44.72;32.47;;;;;;;;;;5035201;28;20021;-67
2023/04/17 05:23:53;;;;;;;44.92;32.88;;;;;;;;;;5052520;28;20172;-67
2023/04/17 05:26:22;;;;;;;46.33;33.05;;;;;;;;;;5053036;28;20021;-66
2023/04/17 05:28:48;;;;;;;48.17;34.67;;;;;;;;;;5052790;28;20159;-66
2023/04/17 05:31:14;;;;;;;44.60;33.80;;;;;;;;;;5052901;28;20064;-67
2023/04/17 05:33:40;;;;;;;45.85;32.85;;;;;;;;;;5035872;28;20021;-67
2023/04/17 05:36:08;;;;;;;46.70;34.15;;;;;;;;;;5051890;22;20516;-63
2023/04/17 05:38:33;;;;;;;49.92;35.95;;;;;;;;;;5032746;28;20033;-63
2023/04/17 05:41:00;;;;;;;45.80;32.20;;;;;;;;;;5032731;28;20109;-61
2023/04/17 05:43:26;;;;;;;45.90;33.83;;;;;;;;;;5029395;28;20044;-62
2023/04/17 05:45:53;;;;;;;45.97;34.20;;;;;;;;;;5032183;28;20018;-59
2023/04/17 05:48:19;;;;;;;49.38;35.35;;;;;;;;;;5022404;28;20056;-60
2023/04/17 05:50:46;;;;;;;43.90;31.50;;;;;;;;;;5031903;28;20033;-60
2023/04/17 05:53:15;;;;;;;51.83;36.08;;;;;;;;;;5031593;28;20362;-61
2023/04/17 05:55:41;;;;;;;49.13;34.50;;;;;;;;;;5032198;28;20469;-59
2023/04/17 05:58:07;;;;;;;46.10;32.70;;;;;;;;;;5034177;28;20056;-57
2023/04/17 06:00:33;;;;;;;45.25;32.70;;;;;;;;;;5031044;28;20100;-61
2023/04/17 06:03:04;;;;;;;41.85;30.00;;;;;;;;;;5030954;28;20536;-57
2023/04/17 06:05:31;;;;;;;45.55;31.30;;;;;;;;;;5031321;28;20067;-60
2023/04/17 06:07:56;;;;;;;43.00;31.23;;;;;;;;;;5014117;28;20059;-63
2023/04/17 06:10:22;;;;;;;45.25;33.55;;;;;;;;;;5031629;28;20037;-65
2023/04/17 06:12:48;;;;;;;42.05;31.95;;;;;;;;;;5031732;28;20045;-60
2023/04/17 06:15:14;;;;;;;42.20;31.55;;;;;;;;;;5030887;28;20626;-60
2023/04/17 06:17:41;;;;;;;43.60;31.77;;;;;;;;;;5031925;28;20469;-61
2023/04/17 06:20:09;;;;;;;45.35;30.98;;;;;;;;;;5032036;28;20456;-57
2023/04/17 06:22:35;;;;;;;41.05;30.85;;;;;;;;;;5031579;28;20095;-60
2023/04/17 06:25:04;;;;;;;46.65;32.75;;;;;;;;;;5031093;28;20033;-63
2023/04/17 06:27:30;;;;;;;43.80;31.60;;;;;;;;;;5013514;28;20122;-60
2023/04/17 06:29:56;;;;;;;39.05;29.33;;;;;;;;;;5014067;28;20021;-63
2023/04/17 06:32:22;;;;;;;41.55;29.80;;;;;;;;;;5030603;28;20021;-60
2023/04/17 06:34:48;;;;;;;44.47;30.50;;;;;;;;;;5030505;28;20095;-58
2023/04/17 06:37:14;;;;;;;42.45;31.00;;;;;;;;;;5031607;28;20032;-63
2023/04/17 06:39:40;;;;;;;41.75;28.65;;;;;;;;;;5031355;28;20018;-60
2023/04/17 06:42:06;;;;;;;39.83;29.63;;;;;;;;;;5031733;28;20076;-54
2023/04/17 06:44:32;;;;;;;45.25;29.95;;;;;;;;;;5030555;28;20112;-63
2023/04/17 06:47:02;;;;;;;36.55;28.77;;;;;;;;;;5031422;28;20440;-64
2023/04/17 06:49:28;;;;;;;43.63;32.08;;;;;;;;;;5031268;28;20032;-60
2023/04/17 06:51:55;;;;;;;39.35;29.95;;;;;;;;;;5031628;28;20037;-62
2023/04/17 06:54:21;;;;;;;40.65;27.98;;;;;;;;;;5030802;28;20040;-61
2023/04/17 06:56:47;;;;;;;39.92;29.20;;;;;;;;;;5031100;28;20023;-57
2023/04/17 06:59:13;;;;;;;38.72;29.65;;;;;;;;;;5031127;28;20111;-61
2023/04/17 07:01:39;;;;;;;42.05;30.42;;;;;;;;;;5034234;28;20037;-63
2023/04/17 07:04:07;;;;;;;41.45;29.00;;;;;;;;;;5034270;28;20025;-63
2023/04/17 07:06:33;;;;;;;39.33;29.73;;;;;;;;;;5034845;28;20026;-60
2023/04/17 07:09:00;;;;;;;38.53;28.88;;;;;;;;;;5017388;28;20053;-62
2023/04/17 07:11:26;;;;;;;39.92;30.58;;;;;;;;;;5035189;28;20068;-56
2023/04/17 07:13:52;;;;;;;41.90;29.80;;;;;;;;;;5034163;28;20029;-61
2023/04/17 07:16:21;;;;;;;39.17;30.13;;;;;;;;;;5035021;28;20029;-64
2023/04/17 07:18:47;;;;;;;41.33;30.33;;;;;;;;;;5035013;28;20486;-65
2023/04/17 07:21:13;;;;;;;38.90;28.80;;;;;;;;;;5035248;28;20022;-62
2023/04/17 07:23:39;;;;;;;35.30;27.40;;;;;;;;;;5034422;28;20025;-62
2023/04/17 07:26:06;;;;;;;40.15;28.83;;;;;;;;;;5035252;28;20032;-59
2023/04/17 07:28:33;;;;;;;36.90;28.15;;;;;;;;;;5035467;28;20052;-64
2023/04/17 07:30:58;;;;;;;38.72;27.92;;;;;;;;;;5035037;28;20036;-64
2023/04/17 07:33:25;;;;;;;43.90;28.20;;;;;;;;;;5048890;28;20033;-64
2023/04/17 07:35:52;;;;;;;35.22;27.10;;;;;;;;;;5042268;28;20544;-64
2023/04/17 07:38:18;;;;;;;36.05;27.70;;;;;;;;;;5019752;28;20032;-65
2023/04/17 07:40:44;;;;;;;39.53;28.27;;;;;;;;;;5035022;28;20030;-64
2023/04/17 07:43:10;;;;;;;35.15;27.30;;;;;;;;;;5033868;28;20040;-65
2023/04/17 07:45:37;;;;;;;39.38;27.90;;;;;;;;;;5034509;28;20020;-64
2023/04/17 07:48:03;;;;;;;37.92;26.55;;;;;;;;;;5035103;28;20477;-65
2023/04/17 07:50:29;;;;;;;38.08;27.98;;;;;;;;;;5034646;28;20029;-65
2023/04/17 07:52:55;;;;;;;32.70;25.85;;;;;;;;;;5034197;28;20033;-64
2023/04/17 07:55:21;;;;;;;35.90;26.45;;;;;;;;;;5033816;28;20470;-65
2023/04/17 07:57:50;;;;;;;33.60;25.77;;;;;;;;;;5016473;28;20040;-66
2023/04/17 08:00:16;;;;;;;34.58;26.55;;;;;;;;;;5016492;28;20437;-66
2023/04/17 08:02:42;;;;;;;32.15;24.67;;;;;;;;;;5033938;28;20022;-65
2023/04/17 08:05:09;;;;;;;32.13;23.52;;;;;;;;;;5015818;28;20112;-66
2023/04/17 08:07:35;;;;;;;35.83;26.25;;;;;;;;;;5034500;28;20030;-65
2023/04/17 08:10:02;;;;;;;32.47;25.17;;;;;;;;;;5034035;28;20502;-65
2023/04/17 08:12:28;;;;;;;30.75;23.85;;;;;;;;;;5033459;28;20105;-66
2023/04/17 08:14:54;;;;;;;32.50;25.52;;;;;;;;;;5015706;28;20116;-63
2023/04/17 08:17:22;;;;;;;33.03;24.00;;;;;;;;;;5034333;28;20021;-67
2023/04/17 08:19:57;;;;;;;30.65;23.08;;;;;;;;;;5034197;28;20034;-68
2023/04/17 08:22:23;;;;;;;40.25;25.85;;;;;;;;;;5034724;28;20493;-66
2023/04/17 08:24:53;;;;;;;37.40;26.13;;;;;;;;;;5016410;28;20053;-65
2023/04/17 08:27:19;;;;;;;33.55;24.02;;;;;;;;;;5034411;28;20104;-67
2023/04/17 08:29:45;;;;;;;31.98;23.00;;;;;;;;;;5016784;28;20490;-67
2023/04/17 08:32:11;;;;;;;31.30;22.55;;;;;;;;;;5016388;28;20061;-67
2023/04/17 08:34:37;;;;;;;29.35;20.90;;;;;;;;;;5033447;28;20536;-67
2023/04/17 08:37:04;;;;;;;27.10;20.23;;;;;;;;;;5034066;28;20040;-66
2023/04/17 08:39:30;;;;;;;29.77;20.27;;;;;;;;;;5015660;28;20551;-66
2023/04/17 08:42:00;;;;;;;30.20;21.75;;;;;;;;;;5016046;28;20025;-65
2023/04/17 08:44:27;;;;;;;30.30;20.67;;;;;;;;;;5032953;28;20026;-65
2023/04/17 08:46:56;;;;;;;31.05;19.75;;;;;;;;;;5033513;28;20482;-68
2023/04/17 08:49:22;;;;;;;30.33;20.63;;;;;;;;;;5033564;28;20121;-65
2023/04/17 08:51:48;;;;;;;26.45;19.60;;;;;;;;;;5015493;28;20032;-65
2023/04/17 08:54:14;;;;;;;28.02;19.25;;;;;;;;;;5032547;28;20030;-65
2023/04/17 08:56:40;;;;;;;28.75;20.30;;;;;;;;;;5033595;28;20386;-68
2023/04/17 08:59:06;;;;;;;28.35;20.50;;;;;;;;;;5015398;28;20037;-66
2023/04/17 09:01:33;;;;;;;25.40;18.98;;;;;;;;;;5033105;28;20033;-69
2023/04/17 09:03:59;;;;;;;26.25;19.67;;;;;;;;;;5032511;28;20100;-65
2023/04/17 09:06:26;;;;;;;28.58;20.50;;;;;;;;;;5032752;28;20486;-66
2023/04/17 09:08:56;;;;;;;27.75;20.33;;;;;;;;;;5033137;28;20062;-66
2023/04/17 09:11:22;;;;;;;26.90;19.38;;;;;;;;;;5015197;28;20505;-68
2023/04/17 09:13:49;;;;;;;27.38;20.38;;;;;;;;;;5032229;28;20521;-67
2023/04/17 09:16:15;;;;;;;29.55;19.77;;;;;;;;;;5015190;28;20048;-67
2023/04/17 09:18:42;;;;;;;26.08;19.20;;;;;;;;;;5033219;28;20108;-68
2023/04/17 09:21:08;;;;;;;25.08;18.70;;;;;;;;;;5015268;28;20118;-67
2023/04/17 09:23:47;;;;;;;24.52;18.65;;;;;;;;;;5031237;28;20022;-67
2023/04/17 09:26:15;;;;;;;26.25;18.52;;;;;;;;;;5014777;28;20174;-66
2023/04/17 09:28:44;;;;;;;25.27;18.48;;;;;;;;;;5032683;28;20481;-67
2023/04/17 09:31:10;;;;;;;;;;;;;;;;;;5033099;28;20397;-66
2023/04/17 09:33:36;;;;;;;25.67;20.08;;;;;;;;;;5031964;28;19905;-66
2023/04/17 09:36:20;;;;;;;24.25;17.95;;;;;;;;;;5028364;28;20505;-66
2023/04/17 09:38:46;;;;;;;30.00;17.58;;;;;;;;;;5032103;28;20025;-64
2023/04/17 09:41:26;;;;;;;22.83;17.10;;;;;;;;;;5024626;28;20021;-66
2023/04/17 09:43:53;;;;;;;26.83;18.98;;;;;;;;;;5031778;28;20057;-66
2023/04/17 09:46:36;;;;;;;22.42;16.75;;;;;;;;;;5032455;28;20417;-66
2023/04/17 09:49:23;;;;;;;21.75;16.83;;;;;;;;;;5032548;28;20048;-64
2023/04/17 09:51:49;;;;;;;22.80;17.73;;;;;;;;;;5032345;28;20021;-63
2023/04/17 09:54:16;;;;;;;23.35;18.15;;;;;;;;;;5031002;28;20025;-62
2023/04/17 09:56:42;;;;;;;23.40;17.25;;;;;;;;;;5030504;28;20173;-62
2023/04/17 09:59:09;;;;;;;23.30;16.90;;;;;;;;;;5032459;28;20032;-65
2023/04/17 10:01:36;;;;;;;22.35;17.73;;;;;;;;;;5032002;28;20056;-65
2023/04/17 10:04:03;;;;;;;23.80;17.35;;;;;;;;;;5031462;28;20030;-65
2023/04/17 10:06:32;;;;;;;20.95;16.67;;;;;;;;;;5014411;28;20029;-65
2023/04/17 10:08:58;;;;;;;23.77;16.65;;;;;;;;;;5031761;28;20030;-67
2023/04/17 10:11:27;;;;;;;23.45;17.52;;;;;;;;;;5031709;28;20093;-66
2023/04/17 10:13:58;;;;;;;22.73;16.25;;;;;;;;;;5026477;28;20124;-64
2023/04/17 10:16:37;;;;;;;22.95;17.15;;;;;;;;;;5031593;28;20017;-63
2023/04/17 10:19:22;;;;;;;23.52;16.40;;;;;;;;;;5029034;28;20026;-63
2023/04/17 10:22:08;;;;;;;23.23;16.27;;;;;;;;;;5027952;28;20112;-65
2023/04/17 10:24:34;;;;;;;23.35;17.05;;;;;;;;;;5027557;28;20528;-65
2023/04/17 10:27:01;;;;;;;20.98;16.23;;;;;;;;;;5021648;28;20815;-65
2023/04/17 10:29:46;;;;;;;22.15;16.63;;;;;;;;;;5031706;28;20063;-67
2023/04/17 10:32:15;;;;;;;25.73;16.60;;;;;;;;;;5030301;28;20029;-64
2023/04/17 10:34:41;;;;;;;23.45;16.50;;;;;;;;;;5030669;28;20025;-62
2023/04/17 10:37:07;;;;;;;21.85;16.38;;;;;;;;;;5031759;28;20052;-65
2023/04/17 10:39:55;;;;;;;22.33;16.95;;;;;;;;;;5031660;28;20022;-65
2023/04/17 10:42:23;;;;;;;22.08;16.65;;;;;;;;;;5031439;28;20026;-64
2023/04/17 10:44:49;;;;;;;22.08;16.80;;;;;;;;;;5030559;28;20024;-63
2023/04/17 10:47:19;;;;;;;22.60;16.38;;;;;;;;;;5031595;28;20025;-65
2023/04/17 10:49:51;;;;;;;24.42;16.23;;;;;;;;;;5031755;28;20371;-65
2023/04/17 10:52:37;;;;;;;20.48;15.98;;;;;;;;;;5030216;28;20029;-64
2023/04/17 10:55:06;;;;;;;22.13;15.50;;;;;;;;;;5029576;28;20029;-66
2023/04/17 10:57:51;;;;;;;22.77;16.50;;;;;;;;;;5030793;28;20021;-66
2023/04/17 11:00:18;;;;;;;21.58;15.65;;;;;;;;;;5028265;28;20109;-65
2023/04/17 11:02:45;;;;;;;22.73;16.67;;;;;;;;;;5032374;28;20075;-62
2023/04/17 11:05:12;;;;;;;22.48;16.95;;;;;;;;;;5016168;28;20049;-66
2023/04/17 11:07:38;;;;;;;21.70;15.88;;;;;;;;;;5032646;28;20034;-63
2023/04/17 11:10:07;;;;;;;20.60;15.77;;;;;;;;;;5032270;28;20394;-65
2023/04/17 11:12:33;;;;;;;23.95;17.00;;;;;;;;;;5033235;28;20082;-65
2023/04/17 11:15:03;;;;;;;24.52;17.10;;;;;;;;;;5030781;28;20033;-66
2023/04/17 11:17:29;;;;;;;21.80;15.65;;;;;;;;;;5033031;28;20021;-68
2023/04/17 11:19:56;;;;;;;23.45;15.73;;;;;;;;;;5014092;28;20052;-67
2023/04/17 11:22:22;;;;;;;21.85;16.30;;;;;;;;;;5031054;28;20025;-67
2023/04/17 11:24:50;;;;;;;20.20;16.17;;;;;;;;;;5030244;28;20036;-67
2023/04/17 11:27:16;;;;;;;;;;;;;;;;;;5031799;28;20018;-65
2023/04/17 11:29:44;;;;;;;22.27;17.10;;;;;;;;;;5032819;28;19928;-67
2023/04/17 11:32:11;;;;;;;23.77;17.58;;;;;;;;;;5032326;28;20025;-65
2023/04/17 11:37:14;;;;;;;21.70;16.92;;;;;;;;;;5028464;28;20472;-65
2023/04/17 11:39:42;;;;;;;22.10;17.65;;;;;;;;;;5030180;28;20405;-64
2023/04/17 11:42:08;;;;;;;22.63;17.33;;;;;;;;;;5011920;28;20121;-63
2023/04/17 11:44:34;;;;;;;20.33;16.55;;;;;;;;;;5029106;28;20029;-65
2023/04/17 11:47:01;;;;;;;22.63;17.73;;;;;;;;;;5030925;28;20489;-65
2023/04/17 11:49:31;;;;;;;24.15;17.75;;;;;;;;;;5036292;28;20358;-64
2023/04/17 11:52:00;;;;;;;23.30;17.23;;;;;;;;;;5033793;28;20017;-65
2023/04/17 11:54:30;;;;;;;23.17;17.63;;;;;;;;;;5033047;28;20045;-66
2023/04/17 11:57:00;;;;;;;22.95;17.00;;;;;;;;;;5033478;28;20112;-63
2023/04/17 11:59:32;;;;;;;26.90;17.60;;;;;;;;;;5033784;28;20022;-63
2023/04/17 12:02:00;;;;;;;20.77;17.02;;;;;;;;;;5034252;28;20110;-66
2023/04/17 12:04:28;;;;;;;21.77;17.70;;;;;;;;;;5032464;28;20493;-64
2023/04/17 12:06:54;;;;;;;22.65;17.15;;;;;;;;;;5032800;28;20030;-63
2023/04/17 12:09:23;;;;;;;21.95;18.35;;;;;;;;;;5033353;28;20017;-64
2023/04/17 12:11:48;;;;;;;;;;;;;;;;;;5033882;28;20446;-64
2023/04/17 12:14:14;;;;;;;20.65;16.60;;;;;;;;;;5030715;28;19949;-64
2023/04/17 12:16:40;;;;;;;22.55;16.90;;;;;;;;;;5033323;28;20029;-61
2023/04/17 12:19:07;;;;;;;21.27;16.85;;;;;;;;;;5033152;28;20036;-65
2023/04/17 12:21:33;;;;;;;20.75;17.00;;;;;;;;;;5032890;28;20033;-64
2023/04/17 12:23:59;;;;;;;20.95;17.02;;;;;;;;;;5032210;28;20029;-64
2023/04/17 12:26:25;;;;;;;22.35;16.98;;;;;;;;;;5032836;28;20025;-64
2023/04/17 12:28:51;;;;;;;23.67;16.83;;;;;;;;;;5034113;28;20021;-64
2023/04/17 12:31:17;;;;;;;20.60;16.42;;;;;;;;;;5015425;28;20184;-65
2023/04/17 12:33:43;;;;;;;21.30;16.98;;;;;;;;;;5032075;28;20104;-64
2023/04/17 12:36:09;;;;;;;20.10;16.35;;;;;;;;;;5032931;28;20060;-63
2023/04/17 12:38:36;;;;;;;21.33;17.80;;;;;;;;;;5033257;28;20025;-65
2023/04/17 12:41:02;;;;;;;20.75;17.17;;;;;;;;;;5032887;28;20112;-64
2023/04/17 12:43:28;;;;;;;22.88;18.13;;;;;;;;;;5032375;28;20071;-65
2023/04/17 12:45:54;;;;;;;21.33;17.27;;;;;;;;;;5032906;28;20086;-63
2023/04/17 12:48:20;;;;;;;23.17;16.77;;;;;;;;;;5032612;28;20025;-61
2023/04/17 12:50:46;;;;;;;20.55;17.02;;;;;;;;;;5032575;28;20056;-64
2023/04/17 12:53:13;;;;;;;21.05;16.83;;;;;;;;;;5031856;28;20476;-65
2023/04/17 12:55:40;;;;;;;19.92;16.50;;;;;;;;;;5032482;28;20025;-65
2023/04/17 12:58:06;;;;;;;19.90;16.52;;;;;;;;;;5012896;28;20018;-63
2023/04/17 13:00:33;;;;;;;21.45;16.67;;;;;;;;;;5027444;28;20030;-64
2023/04/17 13:02:59;;;;;;;23.50;17.05;;;;;;;;;;5031596;28;20032;-65
2023/04/17 13:05:26;;;;;;;20.45;16.60;;;;;;;;;;5010173;28;20424;-65
2023/04/17 13:07:52;;;;;;;21.33;16.73;;;;;;;;;;5014363;28;20112;-63
2023/04/17 13:10:18;;;;;;;22.17;17.35;;;;;;;;;;5031744;28;20430;-64
2023/04/17 13:12:44;;;;;;;22.65;16.73;;;;;;;;;;5032562;28;20458;-65
2023/04/17 13:15:12;;;;;;;21.02;15.75;;;;;;;;;;5030997;28;20781;-64
2023/04/17 13:17:38;;;;;;;21.23;17.13;;;;;;;;;;5014134;28;20037;-64
2023/04/17 13:20:04;;;;;;;21.98;16.58;;;;;;;;;;5032195;28;20113;-63
2023/04/17 13:22:30;;;;;;;20.60;16.30;;;;;;;;;;5031857;28;20053;-64
2023/04/17 13:24:56;;;;;;;20.38;17.15;;;;;;;;;;5031235;28;20056;-64
2023/04/17 13:27:24;;;;;;;23.48;17.13;;;;;;;;;;5032580;28;20045;-65
2023/04/17 13:29:50;;;;;;;21.67;16.50;;;;;;;;;;5032110;28;20013;-66
2023/04/17 13:32:16;;;;;;;20.35;16.30;;;;;;;;;;5032073;28;20050;-65
2023/04/17 13:34:42;;;;;;;19.92;17.50;;;;;;;;;;5013065;28;20482;-65
2023/04/17 13:37:09;;;;;;;23.17;17.88;;;;;;;;;;5011059;28;20116;-63
2023/04/17 13:39:34;;;;;;;20.75;16.77;;;;;;;;;;5021362;28;20029;-65
2023/04/17 13:42:01;;;;;;;21.95;16.95;;;;;;;;;;5031175;28;20394;-66
2023/04/17 13:44:27;;;;;;;20.48;16.98;;;;;;;;;;5030727;28;20026;-66
2023/04/17 13:46:53;;;;;;;22.17;17.27;;;;;;;;;;5031749;28;20025;-64
2023/04/17 13:49:19;;;;;;;23.40;17.70;;;;;;;;;;5031449;28;20496;-66
2023/04/17 13:51:46;;;;;;;24.70;17.95;;;;;;;;;;5031448;28;20017;-63
2023/04/17 13:54:12;;;;;;;22.80;16.95;;;;;;;;;;5012805;28;20032;-65
2023/04/17 13:56:38;;;;;;;21.15;17.27;;;;;;;;;;5031139;28;20021;-65
2023/04/17 13:59:04;;;;;;;23.25;18.20;;;;;;;;;;5031561;28;20116;-64
2023/04/17 14:01:30;;;;;;;21.10;16.58;;;;;;;;;;5031380;28;20029;-65
2023/04/17 14:03:59;;;;;;;20.98;16.23;;;;;;;;;;5013155;28;20412;-63
2023/04/17 14:06:27;;;;;;;24.35;17.60;;;;;;;;;;5031152;28;20041;-64
2023/04/17 14:08:53;;;;;;;20.40;16.83;;;;;;;;;;5031153;28;20505;-63
2023/04/17 14:11:19;;;;;;;21.00;17.15;;;;;;;;;;5030603;28;20021;-64
2023/04/17 14:13:45;;;;;;;23.27;16.80;;;;;;;;;;5028922;28;20021;-63
2023/04/17 14:16:11;;;;;;;23.48;16.80;;;;;;;;;;5030735;28;20033;-65
2023/04/17 14:18:37;;;;;;;21.25;15.88;;;;;;;;;;5013554;28;20026;-65
2023/04/17 14:21:04;;;;;;;22.23;17.73;;;;;;;;;;5030529;28;20037;-64